Portada
METAR-TAF:

METAR-TAF

Aeropuertos :

Aeropuerto Internacional de Bagdad

Bagdad, Iraq

latitud: 33-15-45N, longitud: 44-14-04E, altitud: 35 m

Observación

El informe se hizo hace 44 minutos, a las 16:00 UTC
Viento 3 kt del oeste-noroeste
Temperatura 32°C
Humedad 18%
Presión 1009 hPa
Visibilidad: 9000 m

METAR: ORBI 061600Z 29003KT 9000 NSC 32/05 Q1009

Hora: 19:44 (16:44 UTC)

Pronóstico

El informe se hizo hace 6 horas y 44 minutos, a las 10:00 UTC
Pronóstico válido del 06 a las 12 UTC al 07 a las 12 UTC
Viento 10 kt del oeste-noroeste
Visibilidad: 8000 m

TAF: ORBI 061000Z 0612/0712 30010KT 8000 NSC

Observaciones y pronósticos meteorológicos de más de 4000 aeropuertos (mensajes METAR y TAF).

Los puntos amarillos y rojos representan las estaciones disponibles.

Ponga el ratón en el punto deseado para ver el nombre de la estación.

Haga clic para ver las observaciones y los pronósticos meteorológicos.

Para cambiar el mapa : haga clic en los botones verdes con una cruz de color negro para hacer un zoom, en el botón verde con un guión para alejar o en las flechas verdes para mapas adyacentes.


METAR-TAF: